Terminal Aerodrome Forecast
Issued by NWS

Home | Current Version | Previous Version | Text Only | Print | Product List | Glossary On
Versions: 1 2 3 4 5 6 7 8 9 10 11 12 13 14 15 16 17 18 19 20 21 22 23 24 25 26 27 28 29 30 31 32 33 34 35 36 37 38 39 40 41 42 43 44 45 46 47 48 49 50
000
FTUS42 KMFL 231922 AAB
TAFTMB
TAF AMD
KTMB 231922Z 2319/2418 04006KT P6SM VCTS SCT025CB BKN080
      TEMPO 2319/2323 VRB15G22KT 3SM TSRA BKN020CB
     FM232300 11007KT P6SM VCSH BKN035 BKN070 BKN250
     FM240600 VRB03KT P6SM VCSH SCT030 BKN050
     FM241500 14006KT P6SM VCTS SCT030CB BKN050=

USA.gov is the U.S. government's official web portal to all federal, state and local government web resources and services.